To NAV CANADA Home Page Login to a new session Search on AWWS site Disclaimer Vers la page française équivalente Tips FAQ What's new on the site To the Forecasts and Observations / NOTAM section To "File a Flight Plan" website Publications and other links Update of the User's profile FIC Telephone Numbers My Weather Data Folder Route Weather Data Regional Weather Data Local Weather Data To the Forecasts and Observations / NOTAM section
Request Generated 11/13/2018 at 18:43:06 UTC . Weather information available at that time is displayed.

METAR/TAF

NORTH BATTLEFORD/SK    (show WxCam)

METAR CYQW 131800Z AUTO 12005KT 9SM CLR M02/M05 A3009 RMK SLP227=
METAR CYQW 131700Z AUTO 13005KT 9SM CLR M03/M06 A3009 RMK SLP228=
METAR CYQW 131600Z AUTO 08005KT 9SM CLR M04/M07 A3012 RMK SLP236=

TAF CYQW 131738Z 1318/1406 12008KT P6SM SCT160 BKN250
RMK FCST BASED ON AUTO OBS. NXT FCST BY 140000Z=
Your time UTC time
Weather data provided by Environment Canada and NAV CANADA